Shokyu Maru — JG5288 — position and weather

sailwx.info

Track history (hours):
 
Tides and Currents Weather Stations Pressure Air Temp Water Temp Dewpoint Dewpoint Depression Visibility Wind Speed Wind Dir Waves Ship Positions

Shokyu Maru

Last reported at 2015-Sep-03 18:32 UTC. Time now 2015-Sep-03 19:17 UTC.
Position N 35°36' E 139°55'.

Length 91 m; draft 5.2 m.

Type: Tanker. MMSI: 431000253.

Date/timePositionNaut miles runAvg speedWind from/ knotsBaromVisibWave heightAir tempDewpointWater temp
2015-Sep-03 18:32N 35°36' E 139°55'0 0.0
2015-Sep-03 17:33N 35°36' E 139°55'0 0.0
2015-Sep-03 16:33N 35°36' E 139°55'0 0.0
2015-Sep-03 15:31N 35°36' E 139°55'0 0.0
2015-Sep-03 14:22N 35°36' E 139°55'5 6.8
2015-Sep-03 13:34N 35°31' E 139°59'3 3.0
2015-Sep-03 12:34N 35°29' E 140°01'0 0.0
2015-Sep-03 11:34N 35°29' E 140°01'0 0.0
2015-Sep-03 10:33N 35°29' E 140°01'0 0.0
2015-Sep-03 09:33N 35°29' E 140°01'0 0.0
2015-Sep-03 08:21N 35°29' E 140°01'2 2.8
2015-Sep-03 07:33N 35°30' E 139°59'0 0.1
2015-Sep-03 06:34N 35°30' E 139°59'0 0.0
2015-Sep-03 05:34N 35°30' E 139°59'0 0.1
2015-Sep-03 04:34N 35°30' E 139°59'0 0.1
2015-Sep-03 03:33N 35°30' E 139°59'7 6.8
2015-Sep-03 02:34N 35°37' E 139°56'4 3.8
2015-Sep-03 01:32N 35°41' E 139°56'0 0.0
2015-Sep-03 00:32N 35°41' E 139°56'0 0.0
2015-Sep-02 23:32N 35°41' E 139°56'0 0.0
2015-Sep-02 22:32N 35°41' E 139°56'2 2.1
2015-Sep-02 21:33N 35°39' E 139°58'4 4.0
2015-Sep-02 20:33N 35°36' E 139°55'0 0.0
2015-Sep-02 19:30N 35°36' E 139°55'0 0.0
2015-Sep-02 18:33N 35°36' E 139°55'0 0.1
2015-Sep-02 17:30N 35°36' E 139°55'0 0.1
2015-Sep-02 16:33N 35°36' E 139°55'0 0.0
2015-Sep-02 15:33N 35°36' E 139°55'0 0.0
2015-Sep-02 14:33N 35°36' E 139°55'0 0.0
2015-Sep-02 13:32N 35°36' E 139°55'0 0.0
2015-Sep-02 12:33N 35°36' E 139°55'0 0.0
2015-Sep-02 11:32N 35°36' E 139°55'0 0.0
2015-Sep-02 10:33N 35°36' E 139°55'8 7.3
2015-Sep-02 09:25N 35°29' E 140°01'0 0.0
2015-Sep-02 08:31N 35°29' E 140°01'0 0.0
2015-Sep-02 07:25N 35°29' E 140°01'0 0.0
2015-Sep-02 06:31N 35°29' E 140°01'0 0.0
2015-Sep-02 05:31N 35°29' E 140°01'1 0.7
2015-Sep-02 03:34N 35°30' E 139°60'9 9.1
2015-Sep-02 02:34N 35°39' E 139°58'2 1.9
2015-Sep-02 01:22N 35°41' E 139°56'0 0.0
2015-Sep-02 00:28N 35°41' E 139°56'0 0.0
2015-Sep-01 23:22N 35°41' E 139°56'0 0.0
2015-Sep-01 22:16N 35°41' E 139°56'2 2.4
2015-Sep-01 21:33N 35°39' E 139°58'4 3.9
2015-Sep-01 20:32N 35°36' E 139°55'0 0.0
2015-Sep-01 19:32N 35°36' E 139°55'0 0.0
2015-Sep-01 18:26N 35°36' E 139°55'0 0.0
2015-Sep-01 17:32N 35°36' E 139°55'0 0.0
2015-Sep-01 16:32N 35°36' E 139°55'0 0.0
2015-Sep-01 15:29N 35°36' E 139°55'0 0.0
2015-Sep-01 14:32N 35°36' E 139°55'0 0.0
2015-Sep-01 13:29N 35°36' E 139°56'0 0.1
2015-Sep-01 12:27N 35°36' E 139°55'8 8.5
2015-Sep-01 11:33N 35°30' E 139°49'10 9.8
2015-Sep-01 10:33N 35°24' E 139°40'0 0.3
2015-Sep-01 09:31N 35°24' E 139°40'0 0.0
2015-Sep-01 08:31N 35°24' E 139°40'0 0.0
2015-Sep-01 07:31N 35°24' E 139°40'0 0.0
2015-Sep-01 06:31N 35°24' E 139°40'1 1.3
2015-Sep-01 05:33N 35°24' E 139°41'1111.0
2015-Sep-01 04:33N 35°30' E 139°51'1010.5
2015-Sep-01 03:33N 35°39' E 139°58'2 1.7
2015-Sep-01 02:32N 35°41' E 139°56'0 0.0
2015-Sep-01 01:32N 35°41' E 139°56'0 0.0
2015-Sep-01 00:32N 35°41' E 139°56'0 0.0
2015-Aug-31 23:26N 35°41' E 139°56'5 5.8
2015-Aug-31 22:33N 35°36' E 139°55'0 0.1
2015-Aug-31 21:32N 35°36' E 139°55'0 0.0
2015-Aug-31 20:32N 35°36' E 139°55'0 0.0
2015-Aug-31 19:32N 35°36' E 139°55'0 0.1
2015-Aug-31 18:33N 35°36' E 139°55'0 0.0
2015-Aug-31 17:33N 35°36' E 139°55'0 0.0
2015-Aug-31 16:33N 35°36' E 139°55'0 0.0
2015-Aug-31 15:33N 35°36' E 139°55'0 0.1
2015-Aug-31 14:33N 35°36' E 139°55'0 0.0
2015-Aug-31 13:33N 35°36' E 139°55'0 0.0
2015-Aug-31 12:33N 35°36' E 139°55'0 0.0
2015-Aug-31 11:33N 35°36' E 139°55'1 0.5
2015-Aug-31 10:33N 35°35' E 139°54'1110.9
2015-Aug-31 09:33N 35°27' E 139°45'5 5.3
2015-Aug-31 08:32N 35°24' E 139°40'0 0.0
2015-Aug-31 07:32N 35°24' E 139°40'0 0.0
2015-Aug-31 06:32N 35°24' E 139°40'0 0.0
2015-Aug-31 05:32N 35°24' E 139°40'0 0.0
2015-Aug-31 04:32N 35°24' E 139°40'1 0.9
2015-Aug-31 03:33N 35°24' E 139°40'3 2.9
2015-Aug-31 02:34N 35°23' E 139°43'0 0.0
2015-Aug-31 01:33N 35°23' E 139°43'0 0.0
2015-Aug-31 00:33N 35°23' E 139°43'0 0.0
2015-Aug-30 23:33N 35°23' E 139°43'0 0.0
2015-Aug-30 22:30N 35°23' E 139°43'0 0.1
2015-Aug-30 21:34N 35°23' E 139°44'0 0.0
2015-Aug-30 20:33N 35°23' E 139°44'0 0.0
2015-Aug-30 19:33N 35°23' E 139°44'0 0.1
2015-Aug-30 18:34N 35°23' E 139°43'0 0.0
2015-Aug-30 17:33N 35°23' E 139°43'0 0.0
2015-Aug-30 16:33N 35°23' E 139°43'0 0.0
2015-Aug-30 15:33N 35°23' E 139°43'0 0.0
2015-Aug-30 14:34N 35°23' E 139°43'0 0.0
2015-Aug-30 13:34N 35°23' E 139°43'0 0.0
2015-Aug-30 12:34N 35°23' E 139°43'0 0.0
2015-Aug-30 11:30N 35°23' E 139°43'0 0.0
2015-Aug-30 10:33N 35°23' E 139°43'0 0.0
2015-Aug-30 09:33N 35°23' E 139°44'0 0.0
2015-Aug-30 08:33N 35°23' E 139°44'0 0.1
2015-Aug-30 07:33N 35°23' E 139°44'0 0.0
2015-Aug-30 06:34N 35°23' E 139°44'0 0.0
2015-Aug-30 05:33N 35°23' E 139°44'0 0.0
2015-Aug-30 04:34N 35°23' E 139°44'0 0.0
2015-Aug-30 03:33N 35°23' E 139°44'0 0.1
2015-Aug-30 02:33N 35°23' E 139°43'0 0.1
2015-Aug-30 01:34N 35°23' E 139°44'5 4.6
2015-Aug-30 00:34N 35°27' E 139°46'4 4.2
2015-Aug-29 23:34N 35°25' E 139°41'0 0.3
2015-Aug-29 22:31N 35°25' E 139°41'0 0.0
2015-Aug-29 21:31N 35°25' E 139°41'0 0.0
2015-Aug-29 20:31N 35°25' E 139°41'0 0.0
2015-Aug-29 19:31N 35°25' E 139°41'0 0.0
2015-Aug-29 18:31N 35°25' E 139°41'0 0.0
2015-Aug-29 17:31N 35°25' E 139°41'0 0.0
2015-Aug-29 16:31N 35°25' E 139°41'0 0.0
2015-Aug-29 15:31N 35°25' E 139°41'0 0.0
2015-Aug-29 14:31N 35°25' E 139°41'0 0.0
2015-Aug-29 13:31N 35°25' E 139°41'0 0.0
2015-Aug-29 12:31N 35°25' E 139°41'0 0.0
2015-Aug-29 11:31N 35°25' E 139°41'0 0.0
2015-Aug-29 10:31N 35°25' E 139°41'0 0.0
2015-Aug-29 09:31N 35°25' E 139°41'0 0.0
2015-Aug-29 08:31N 35°25' E 139°41'0 0.0
2015-Aug-29 07:31N 35°25' E 139°41'0 0.0
2015-Aug-29 06:31N 35°25' E 139°41'0 0.0
2015-Aug-29 05:31N 35°25' E 139°41'0 0.0
2015-Aug-29 04:31N 35°25' E 139°41'0 0.0
2015-Aug-29 03:31N 35°25' E 139°41'0 0.0
2015-Aug-29 02:31N 35°25' E 139°41'0 0.0
2015-Aug-29 01:31N 35°25' E 139°41'0 0.0
2015-Aug-29 00:31N 35°25' E 139°41'0 0.0
2015-Aug-28 23:31N 35°25' E 139°41'0 0.0
2015-Aug-28 22:31N 35°25' E 139°41'0 0.0
2015-Aug-28 21:32N 35°25' E 139°41'0 0.0
2015-Aug-28 20:32N 35°25' E 139°41'0 0.0
2015-Aug-28 19:32N 35°25' E 139°41'0 0.0
2015-Aug-28 18:32N 35°25' E 139°41'0 0.0
2015-Aug-28 17:32N 35°25' E 139°41'0 0.0
2015-Aug-28 16:32N 35°25' E 139°41'0 0.0
2015-Aug-28 15:32N 35°25' E 139°41'0 0.0
2015-Aug-28 14:32N 35°25' E 139°41'0 0.0
2015-Aug-28 13:32N 35°25' E 139°41'0 0.0
2015-Aug-28 12:32N 35°25' E 139°41'0 0.0
2015-Aug-28 11:32N 35°25' E 139°41'0 0.0
2015-Aug-28 10:32N 35°25' E 139°41'0 0.0
2015-Aug-28 09:29N 35°25' E 139°41'0 0.0
2015-Aug-28 08:32N 35°25' E 139°41'0 0.0
2015-Aug-28 07:32N 35°25' E 139°41'0 0.1
2015-Aug-28 06:32N 35°25' E 139°41'0 0.0
2015-Aug-28 05:32N 35°25' E 139°41'0 0.0
2015-Aug-28 04:32N 35°25' E 139°41'0 0.0
2015-Aug-28 03:32N 35°25' E 139°41'0 0.0
2015-Aug-28 02:32N 35°25' E 139°41'0 0.0
2015-Aug-28 01:29N 35°25' E 139°41'0 0.0
2015-Aug-28 00:32N 35°25' E 139°41'0 0.0
2015-Aug-27 23:29N 35°25' E 139°41'0 0.0
2015-Aug-27 22:32N 35°25' E 139°41'0 0.0
2015-Aug-27 21:32N 35°25' E 139°41'0 0.0
2015-Aug-27 20:32N 35°25' E 139°41'0 0.0
2015-Aug-27 19:32N 35°25' E 139°41'0 0.0
2015-Aug-27 18:32N 35°25' E 139°41'0 0.0
2015-Aug-27 17:32N 35°25' E 139°41'0 0.0
2015-Aug-27 16:32N 35°25' E 139°41'0 0.0
2015-Aug-27 15:32N 35°25' E 139°41'0 0.0
2015-Aug-27 14:32N 35°25' E 139°41'0 0.0
2015-Aug-27 13:32N 35°25' E 139°41'0 0.0
2015-Aug-27 12:32N 35°25' E 139°41'0 0.0
2015-Aug-27 11:32N 35°25' E 139°41'0 0.0
2015-Aug-27 10:32N 35°25' E 139°41'0 0.0
2015-Aug-27 09:32N 35°25' E 139°41'0 0.0
2015-Aug-27 08:32N 35°25' E 139°41'0 0.0
2015-Aug-27 07:32N 35°25' E 139°41'0 0.0
2015-Aug-27 06:32N 35°25' E 139°41'0 0.0
2015-Aug-27 05:32N 35°25' E 139°41'0 0.0
2015-Aug-27 04:32N 35°25' E 139°41'0 0.0
2015-Aug-27 03:32N 35°25' E 139°41'0 0.0
2015-Aug-27 02:32N 35°25' E 139°41'0 0.0
2015-Aug-27 01:32N 35°25' E 139°41'0 0.0
2015-Aug-27 00:32N 35°25' E 139°41'0 0.0
2015-Aug-26 23:32N 35°25' E 139°41'0 0.0
2015-Aug-26 22:32N 35°25' E 139°41'0 0.0
2015-Aug-26 21:32N 35°25' E 139°41'0 0.0
2015-Aug-26 20:32N 35°25' E 139°41'0 0.0
2015-Aug-26 19:32N 35°25' E 139°41'0 0.0
2015-Aug-26 18:32N 35°25' E 139°41'0 0.0
2015-Aug-26 17:32N 35°25' E 139°41'0 0.0
2015-Aug-26 16:32N 35°25' E 139°41'0 0.0
2015-Aug-26 15:32N 35°25' E 139°41'0 0.0
2015-Aug-26 14:32N 35°25' E 139°41'0 0.0
2015-Aug-26 13:32N 35°25' E 139°41'0 0.0
2015-Aug-26 12:32N 35°25' E 139°41'0 0.0
2015-Aug-26 11:32N 35°25' E 139°41'0 0.0
2015-Aug-26 10:32N 35°25' E 139°41'0 0.0
2015-Aug-26 09:32N 35°25' E 139°41'0 0.0
2015-Aug-26 08:32N 35°25' E 139°41'0 0.0
2015-Aug-26 07:32N 35°25' E 139°41'0 0.0
2015-Aug-26 06:32N 35°25' E 139°41'0 0.0
2015-Aug-26 05:32N 35°25' E 139°41'0 0.0
2015-Aug-26 04:32N 35°25' E 139°41'0 0.0
2015-Aug-26 03:32N 35°25' E 139°41'0 0.0
2015-Aug-26 02:32N 35°25' E 139°41'0 0.0
2015-Aug-26 01:32N 35°25' E 139°41'0 0.0
2015-Aug-26 00:32N 35°25' E 139°41'0 0.0
2015-Aug-25 23:32N 35°25' E 139°41'0 0.0
2015-Aug-25 22:32N 35°25' E 139°41'0 0.0
2015-Aug-25 21:32N 35°25' E 139°41'0 0.0
2015-Aug-25 20:32N 35°25' E 139°41'0 0.0
2015-Aug-25 19:32N 35°25' E 139°41'0 0.0
2015-Aug-25 18:32N 35°25' E 139°41'0 0.0
2015-Aug-25 17:32N 35°25' E 139°41'0 0.0
2015-Aug-25 16:32N 35°25' E 139°41'0 0.0
2015-Aug-25 15:32N 35°25' E 139°41'0 0.0
2015-Aug-25 14:32N 35°25' E 139°41'0 0.0
2015-Aug-25 13:32N 35°25' E 139°41'0 0.0
2015-Aug-25 12:32N 35°25' E 139°41'0 0.0
2015-Aug-25 11:32N 35°25' E 139°41'0 0.0
2015-Aug-25 10:32N 35°25' E 139°41'0 0.0
2015-Aug-25 09:32N 35°25' E 139°41'0 0.0
2015-Aug-25 08:32N 35°25' E 139°41'0 0.0
2015-Aug-25 07:32N 35°25' E 139°41'0 0.0
2015-Aug-25 06:32N 35°25' E 139°41'0 0.0
2015-Aug-25 05:32N 35°25' E 139°41'0 0.0
2015-Aug-25 04:32N 35°25' E 139°41'0 0.0
2015-Aug-25 03:32N 35°25' E 139°41'0 0.0
2015-Aug-25 02:32N 35°25' E 139°41'0 0.0
2015-Aug-25 01:32N 35°25' E 139°41'0 0.0
2015-Aug-25 00:32N 35°25' E 139°41'0 0.0
2015-Aug-24 23:32N 35°25' E 139°41'0 0.0
2015-Aug-24 22:32N 35°25' E 139°41'0 0.0
2015-Aug-24 21:32N 35°25' E 139°41'0 0.0
2015-Aug-24 20:32N 35°25' E 139°41'0 0.0
2015-Aug-24 19:32N 35°25' E 139°41'  
Track history (hours):
 
Tides and Currents Weather Stations Pressure Air Temp Water Temp Dewpoint Dewpoint Depression Visibility Wind Speed Wind Dir Waves Ship Positions

Shokyu Maru

Last reported at 2015-Sep-03 18:32 UTC. Time now 2015-Sep-03 19:17 UTC.
Position N 35°36' E 139°55'.

Length 91 m; draft 5.2 m.

Type: Tanker. MMSI: 431000253.

Date/timePositionNaut miles runAvg speedWind from/ knotsBaromVisibWave heightAir tempDewpointWater temp
2015-Sep-03 18:32N 35°36' E 139°55'0 0.0
2015-Sep-03 17:33N 35°36' E 139°55'0 0.0
2015-Sep-03 16:33N 35°36' E 139°55'0 0.0
2015-Sep-03 15:31N 35°36' E 139°55'0 0.0
2015-Sep-03 14:22N 35°36' E 139°55'5 6.8
2015-Sep-03 13:34N 35°31' E 139°59'3 3.0
2015-Sep-03 12:34N 35°29' E 140°01'0 0.0
2015-Sep-03 11:34N 35°29' E 140°01'0 0.0
2015-Sep-03 10:33N 35°29' E 140°01'0 0.0
2015-Sep-03 09:33N 35°29' E 140°01'0 0.0
2015-Sep-03 08:21N 35°29' E 140°01'2 2.8
2015-Sep-03 07:33N 35°30' E 139°59'0 0.1
2015-Sep-03 06:34N 35°30' E 139°59'0 0.0
2015-Sep-03 05:34N 35°30' E 139°59'0 0.1
2015-Sep-03 04:34N 35°30' E 139°59'0 0.1
2015-Sep-03 03:33N 35°30' E 139°59'7 6.8
2015-Sep-03 02:34N 35°37' E 139°56'4 3.8
2015-Sep-03 01:32N 35°41' E 139°56'0 0.0
2015-Sep-03 00:32N 35°41' E 139°56'0 0.0
2015-Sep-02 23:32N 35°41' E 139°56'0 0.0
2015-Sep-02 22:32N 35°41' E 139°56'2 2.1
2015-Sep-02 21:33N 35°39' E 139°58'4 4.0
2015-Sep-02 20:33N 35°36' E 139°55'0 0.0
2015-Sep-02 19:30N 35°36' E 139°55'0 0.0
2015-Sep-02 18:33N 35°36' E 139°55'0 0.1
2015-Sep-02 17:30N 35°36' E 139°55'0 0.1
2015-Sep-02 16:33N 35°36' E 139°55'0 0.0
2015-Sep-02 15:33N 35°36' E 139°55'0 0.0
2015-Sep-02 14:33N 35°36' E 139°55'0 0.0
2015-Sep-02 13:32N 35°36' E 139°55'0 0.0
2015-Sep-02 12:33N 35°36' E 139°55'0 0.0
2015-Sep-02 11:32N 35°36' E 139°55'0 0.0
2015-Sep-02 10:33N 35°36' E 139°55'8 7.3
2015-Sep-02 09:25N 35°29' E 140°01'0 0.0
2015-Sep-02 08:31N 35°29' E 140°01'0 0.0
2015-Sep-02 07:25N 35°29' E 140°01'0 0.0
2015-Sep-02 06:31N 35°29' E 140°01'0 0.0
2015-Sep-02 05:31N 35°29' E 140°01'1 0.7
2015-Sep-02 03:34N 35°30' E 139°60'9 9.1
2015-Sep-02 02:34N 35°39' E 139°58'2 1.9
2015-Sep-02 01:22N 35°41' E 139°56'0 0.0
2015-Sep-02 00:28N 35°41' E 139°56'0 0.0
2015-Sep-01 23:22N 35°41' E 139°56'0 0.0
2015-Sep-01 22:16N 35°41' E 139°56'2 2.4
2015-Sep-01 21:33N 35°39' E 139°58'4 3.9
2015-Sep-01 20:32N 35°36' E 139°55'0 0.0
2015-Sep-01 19:32N 35°36' E 139°55'0 0.0
2015-Sep-01 18:26N 35°36' E 139°55'0 0.0
2015-Sep-01 17:32N 35°36' E 139°55'0 0.0
2015-Sep-01 16:32N 35°36' E 139°55'0 0.0
2015-Sep-01 15:29N 35°36' E 139°55'0 0.0
2015-Sep-01 14:32N 35°36' E 139°55'0 0.0
2015-Sep-01 13:29N 35°36' E 139°56'0 0.1
2015-Sep-01 12:27N 35°36' E 139°55'8 8.5
2015-Sep-01 11:33N 35°30' E 139°49'10 9.8
2015-Sep-01 10:33N 35°24' E 139°40'0 0.3
2015-Sep-01 09:31N 35°24' E 139°40'0 0.0
2015-Sep-01 08:31N 35°24' E 139°40'0 0.0
2015-Sep-01 07:31N 35°24' E 139°40'0 0.0
2015-Sep-01 06:31N 35°24' E 139°40'1 1.3
2015-Sep-01 05:33N 35°24' E 139°41'1111.0
2015-Sep-01 04:33N 35°30' E 139°51'1010.5
2015-Sep-01 03:33N 35°39' E 139°58'2 1.7
2015-Sep-01 02:32N 35°41' E 139°56'0 0.0
2015-Sep-01 01:32N 35°41' E 139°56'0 0.0
2015-Sep-01 00:32N 35°41' E 139°56'0 0.0
2015-Aug-31 23:26N 35°41' E 139°56'5 5.8
2015-Aug-31 22:33N 35°36' E 139°55'0 0.1
2015-Aug-31 21:32N 35°36' E 139°55'0 0.0
2015-Aug-31 20:32N 35°36' E 139°55'0 0.0
2015-Aug-31 19:32N 35°36' E 139°55'0 0.1
2015-Aug-31 18:33N 35°36' E 139°55'0 0.0
2015-Aug-31 17:33N 35°36' E 139°55'0 0.0
2015-Aug-31 16:33N 35°36' E 139°55'0 0.0
2015-Aug-31 15:33N 35°36' E 139°55'0 0.1
2015-Aug-31 14:33N 35°36' E 139°55'0 0.0
2015-Aug-31 13:33N 35°36' E 139°55'0 0.0
2015-Aug-31 12:33N 35°36' E 139°55'0 0.0
2015-Aug-31 11:33N 35°36' E 139°55'1 0.5
2015-Aug-31 10:33N 35°35' E 139°54'1110.9
2015-Aug-31 09:33N 35°27' E 139°45'5 5.3
2015-Aug-31 08:32N 35°24' E 139°40'0 0.0
2015-Aug-31 07:32N 35°24' E 139°40'0 0.0
2015-Aug-31 06:32N 35°24' E 139°40'0 0.0
2015-Aug-31 05:32N 35°24' E 139°40'0 0.0
2015-Aug-31 04:32N 35°24' E 139°40'1 0.9
2015-Aug-31 03:33N 35°24' E 139°40'3 2.9
2015-Aug-31 02:34N 35°23' E 139°43'0 0.0
2015-Aug-31 01:33N 35°23' E 139°43'0 0.0
2015-Aug-31 00:33N 35°23' E 139°43'0 0.0
2015-Aug-30 23:33N 35°23' E 139°43'0 0.0
2015-Aug-30 22:30N 35°23' E 139°43'0 0.1
2015-Aug-30 21:34N 35°23' E 139°44'0 0.0
2015-Aug-30 20:33N 35°23' E 139°44'0 0.0
2015-Aug-30 19:33N 35°23' E 139°44'0 0.1
2015-Aug-30 18:34N 35°23' E 139°43'0 0.0
2015-Aug-30 17:33N 35°23' E 139°43'0 0.0
2015-Aug-30 16:33N 35°23' E 139°43'0 0.0
2015-Aug-30 15:33N 35°23' E 139°43'0 0.0
2015-Aug-30 14:34N 35°23' E 139°43'0 0.0
2015-Aug-30 13:34N 35°23' E 139°43'0 0.0
2015-Aug-30 12:34N 35°23' E 139°43'0 0.0
2015-Aug-30 11:30N 35°23' E 139°43'0 0.0
2015-Aug-30 10:33N 35°23' E 139°43'0 0.0
2015-Aug-30 09:33N 35°23' E 139°44'0 0.0
2015-Aug-30 08:33N 35°23' E 139°44'0 0.1
2015-Aug-30 07:33N 35°23' E 139°44'0 0.0
2015-Aug-30 06:34N 35°23' E 139°44'0 0.0
2015-Aug-30 05:33N 35°23' E 139°44'0 0.0
2015-Aug-30 04:34N 35°23' E 139°44'0 0.0
2015-Aug-30 03:33N 35°23' E 139°44'0 0.1
2015-Aug-30 02:33N 35°23' E 139°43'0 0.1
2015-Aug-30 01:34N 35°23' E 139°44'5 4.6
2015-Aug-30 00:34N 35°27' E 139°46'4 4.2
2015-Aug-29 23:34N 35°25' E 139°41'0 0.3
2015-Aug-29 22:31N 35°25' E 139°41'0 0.0
2015-Aug-29 21:31N 35°25' E 139°41'0 0.0
2015-Aug-29 20:31N 35°25' E 139°41'0 0.0
2015-Aug-29 19:31N 35°25' E 139°41'0 0.0
2015-Aug-29 18:31N 35°25' E 139°41'0 0.0
2015-Aug-29 17:31N 35°25' E 139°41'0 0.0
2015-Aug-29 16:31N 35°25' E 139°41'0 0.0
2015-Aug-29 15:31N 35°25' E 139°41'0 0.0
2015-Aug-29 14:31N 35°25' E 139°41'0 0.0
2015-Aug-29 13:31N 35°25' E 139°41'0 0.0
2015-Aug-29 12:31N 35°25' E 139°41'0 0.0
2015-Aug-29 11:31N 35°25' E 139°41'0 0.0
2015-Aug-29 10:31N 35°25' E 139°41'0 0.0
2015-Aug-29 09:31N 35°25' E 139°41'0 0.0
2015-Aug-29 08:31N 35°25' E 139°41'0 0.0
2015-Aug-29 07:31N 35°25' E 139°41'0 0.0
2015-Aug-29 06:31N 35°25' E 139°41'0 0.0
2015-Aug-29 05:31N 35°25' E 139°41'0 0.0
2015-Aug-29 04:31N 35°25' E 139°41'0 0.0
2015-Aug-29 03:31N 35°25' E 139°41'0 0.0
2015-Aug-29 02:31N 35°25' E 139°41'0 0.0
2015-Aug-29 01:31N 35°25' E 139°41'0 0.0
2015-Aug-29 00:31N 35°25' E 139°41'0 0.0
2015-Aug-28 23:31N 35°25' E 139°41'0 0.0
2015-Aug-28 22:31N 35°25' E 139°41'0 0.0
2015-Aug-28 21:32N 35°25' E 139°41'0 0.0
2015-Aug-28 20:32N 35°25' E 139°41'0 0.0
2015-Aug-28 19:32N 35°25' E 139°41'0 0.0
2015-Aug-28 18:32N 35°25' E 139°41'0 0.0
2015-Aug-28 17:32N 35°25' E 139°41'0 0.0
2015-Aug-28 16:32N 35°25' E 139°41'0 0.0
2015-Aug-28 15:32N 35°25' E 139°41'0 0.0
2015-Aug-28 14:32N 35°25' E 139°41'0 0.0
2015-Aug-28 13:32N 35°25' E 139°41'0 0.0
2015-Aug-28 12:32N 35°25' E 139°41'0 0.0
2015-Aug-28 11:32N 35°25' E 139°41'0 0.0
2015-Aug-28 10:32N 35°25' E 139°41'0 0.0
2015-Aug-28 09:29N 35°25' E 139°41'0 0.0
2015-Aug-28 08:32N 35°25' E 139°41'0 0.0
2015-Aug-28 07:32N 35°25' E 139°41'0 0.1
2015-Aug-28 06:32N 35°25' E 139°41'0 0.0
2015-Aug-28 05:32N 35°25' E 139°41'0 0.0
2015-Aug-28 04:32N 35°25' E 139°41'0 0.0
2015-Aug-28 03:32N 35°25' E 139°41'0 0.0
2015-Aug-28 02:32N 35°25' E 139°41'0 0.0
2015-Aug-28 01:29N 35°25' E 139°41'0 0.0
2015-Aug-28 00:32N 35°25' E 139°41'0 0.0
2015-Aug-27 23:29N 35°25' E 139°41'0 0.0
2015-Aug-27 22:32N 35°25' E 139°41'0 0.0
2015-Aug-27 21:32N 35°25' E 139°41'0 0.0
2015-Aug-27 20:32N 35°25' E 139°41'0 0.0
2015-Aug-27 19:32N 35°25' E 139°41'0 0.0
2015-Aug-27 18:32N 35°25' E 139°41'0 0.0
2015-Aug-27 17:32N 35°25' E 139°41'0 0.0
2015-Aug-27 16:32N 35°25' E 139°41'0 0.0
2015-Aug-27 15:32N 35°25' E 139°41'0 0.0
2015-Aug-27 14:32N 35°25' E 139°41'0 0.0
2015-Aug-27 13:32N 35°25' E 139°41'0 0.0
2015-Aug-27 12:32N 35°25' E 139°41'0 0.0
2015-Aug-27 11:32N 35°25' E 139°41'0 0.0
2015-Aug-27 10:32N 35°25' E 139°41'0 0.0
2015-Aug-27 09:32N 35°25' E 139°41'0 0.0
2015-Aug-27 08:32N 35°25' E 139°41'0 0.0
2015-Aug-27 07:32N 35°25' E 139°41'0 0.0
2015-Aug-27 06:32N 35°25' E 139°41'0 0.0
2015-Aug-27 05:32N 35°25' E 139°41'0 0.0
2015-Aug-27 04:32N 35°25' E 139°41'0 0.0
2015-Aug-27 03:32N 35°25' E 139°41'0 0.0
2015-Aug-27 02:32N 35°25' E 139°41'0 0.0
2015-Aug-27 01:32N 35°25' E 139°41'0 0.0
2015-Aug-27 00:32N 35°25' E 139°41'0 0.0
2015-Aug-26 23:32N 35°25' E 139°41'0 0.0
2015-Aug-26 22:32N 35°25' E 139°41'0 0.0
2015-Aug-26 21:32N 35°25' E 139°41'0 0.0
2015-Aug-26 20:32N 35°25' E 139°41'0 0.0
2015-Aug-26 19:32N 35°25' E 139°41'0 0.0
2015-Aug-26 18:32N 35°25' E 139°41'0 0.0
2015-Aug-26 17:32N 35°25' E 139°41'0 0.0
2015-Aug-26 16:32N 35°25' E 139°41'0 0.0
2015-Aug-26 15:32N 35°25' E 139°41'0 0.0
2015-Aug-26 14:32N 35°25' E 139°41'0 0.0
2015-Aug-26 13:32N 35°25' E 139°41'0 0.0
2015-Aug-26 12:32N 35°25' E 139°41'0 0.0
2015-Aug-26 11:32N 35°25' E 139°41'0 0.0
2015-Aug-26 10:32N 35°25' E 139°41'0 0.0
2015-Aug-26 09:32N 35°25' E 139°41'0 0.0
2015-Aug-26 08:32N 35°25' E 139°41'0 0.0
2015-Aug-26 07:32N 35°25' E 139°41'0 0.0
2015-Aug-26 06:32N 35°25' E 139°41'0 0.0
2015-Aug-26 05:32N 35°25' E 139°41'0 0.0
2015-Aug-26 04:32N 35°25' E 139°41'0 0.0
2015-Aug-26 03:32N 35°25' E 139°41'0 0.0
2015-Aug-26 02:32N 35°25' E 139°41'0 0.0
2015-Aug-26 01:32N 35°25' E 139°41'0 0.0
2015-Aug-26 00:32N 35°25' E 139°41'0 0.0
2015-Aug-25 23:32N 35°25' E 139°41'0 0.0
2015-Aug-25 22:32N 35°25' E 139°41'0 0.0
2015-Aug-25 21:32N 35°25' E 139°41'0 0.0
2015-Aug-25 20:32N 35°25' E 139°41'0 0.0
2015-Aug-25 19:32N 35°25' E 139°41'0 0.0
2015-Aug-25 18:32N 35°25' E 139°41'0 0.0
2015-Aug-25 17:32N 35°25' E 139°41'0 0.0
2015-Aug-25 16:32N 35°25' E 139°41'0 0.0
2015-Aug-25 15:32N 35°25' E 139°41'0 0.0
2015-Aug-25 14:32N 35°25' E 139°41'0 0.0
2015-Aug-25 13:32N 35°25' E 139°41'0 0.0
2015-Aug-25 12:32N 35°25' E 139°41'0 0.0
2015-Aug-25 11:32N 35°25' E 139°41'0 0.0
2015-Aug-25 10:32N 35°25' E 139°41'0 0.0
2015-Aug-25 09:32N 35°25' E 139°41'0 0.0
2015-Aug-25 08:32N 35°25' E 139°41'0 0.0
2015-Aug-25 07:32N 35°25' E 139°41'0 0.0
2015-Aug-25 06:32N 35°25' E 139°41'0 0.0
2015-Aug-25 05:32N 35°25' E 139°41'0 0.0
2015-Aug-25 04:32N 35°25' E 139°41'0 0.0
2015-Aug-25 03:32N 35°25' E 139°41'0 0.0
2015-Aug-25 02:32N 35°25' E 139°41'0 0.0
2015-Aug-25 01:32N 35°25' E 139°41'0 0.0
2015-Aug-25 00:32N 35°25' E 139°41'0 0.0
2015-Aug-24 23:32N 35°25' E 139°41'0 0.0
2015-Aug-24 22:32N 35°25' E 139°41'0 0.0
2015-Aug-24 21:32N 35°25' E 139°41'0 0.0
2015-Aug-24 20:32N 35°25' E 139°41'0 0.0
2015-Aug-24 19:32N 35°25' E 139°41'  

Dump ship's entire track history